Dades meteomassalio
Diari Summary for Gener 10, 2017 Units:  Metric    English   Both
« Previous Day
Next Day »
Diari Semanal Mensual Anual Personalitzat
  Maxima: Minima: Mijana:
Temperatura: 12.2 °C 5.3 °C 9.2 °C
Rosada: 6.5 °C 2.0 °C 4.4 °C
Humitat: 81 % 65 % 72 %
Velocitat del vent: 62.9 km/h 0.0 km/h 32.4 km/h
Racha vent: 62.9 km/h - -
Vent:- - SW
Pressio: 1023.6 hPa 1013.1 hPa -
Pluja: 0.0 mm    
Historical Graphs
 
 
Tabular Data for Gener 10, 2017
Time Temperature Dew Point Pressure Wind Wind Speed Wind Gust Humidity Rainfall Rate (Hourly) solar Conditions
00:03 5.3 °C 2.0 °C 1023.6 hPa ENE 3.7 km/h 3.7 km/h 79 % 0.0 mm 0.0 W/m2 CLR
00:08 5.9 °C 2.6 °C 1023.2 hPa ENE 5.6 km/h 5.6 km/h 79 % 0.0 mm 0.0 W/m2 CLR
00:13 6.3 °C 2.4 °C 1023.2 hPa ENE 4.8 km/h 4.8 km/h 76 % 0.0 mm 0.0 W/m2 CLR
00:18 6.6 °C 2.6 °C 1023.2 hPa ENE 5.6 km/h 5.6 km/h 76 % 0.0 mm 0.0 W/m2 CLR
00:23 6.7 °C 2.6 °C 1023.2 hPa ENE 3.7 km/h   75 % 0.0 mm 0.0 W/m2 CLR
00:28 6.7 °C 2.3 °C 1023.2 hPa ENE 1.9 km/h   74 % 0.0 mm 0.0 W/m2 CLR
00:33 6.4 °C 2.3 °C 1023.2 hPa ENE 5.6 km/h 5.6 km/h 75 % 0.0 mm 0.0 W/m2 CLR
00:38 6.3 °C 2.2 °C 1023.2 hPa ENE 9.3 km/h 9.3 km/h 75 % 0.0 mm 0.0 W/m2 CLR
00:43 6.3 °C 2.3 °C 1023.2 hPa ENE 5.6 km/h 5.6 km/h 76 % 0.0 mm 0.0 W/m2 CLR
00:48 6.3 °C 2.3 °C 1023.2 hPa Calm     76 % 0.0 mm 0.0 W/m2 CLR
00:53 6.2 °C 2.2 °C 1023.2 hPa Calm     76 % 0.0 mm 0.0 W/m2 CLR
00:58 6.1 °C 2.2 °C 1023.2 hPa Calm     76 % 0.0 mm 0.0 W/m2 CLR
01:03 6.1 °C 2.2 °C 1023.2 hPa Calm     76 % 0.0 mm 0.0 W/m2 CLR
01:08 6.2 °C 2.3 °C 1023.2 hPa Calm     76 % 0.0 mm 0.0 W/m2 CLR
01:13 6.3 °C 2.3 °C 1022.9 hPa Calm     76 % 0.0 mm 0.0 W/m2 CLR
01:18 6.3 °C 2.4 °C 1022.9 hPa Calm     76 % 0.0 mm 0.0 W/m2 CLR
01:23 6.4 °C 2.4 °C 1022.9 hPa Calm     76 % 0.0 mm 0.0 W/m2 CLR
01:28 6.5 °C 2.6 °C 1022.6 hPa ENE 5.6 km/h 5.6 km/h 76 % 0.0 mm 0.0 W/m2 CLR
01:33 6.6 °C 2.4 °C 1022.6 hPa Calm     75 % 0.0 mm 0.0 W/m2 CLR
01:38 6.4 °C 2.5 °C 1022.6 hPa Calm     76 % 0.0 mm 0.0 W/m2 CLR
01:43 6.4 °C 2.5 °C 1022.2 hPa Calm     76 % 0.0 mm 0.0 W/m2 CLR
01:48 6.4 °C 2.5 °C 1022.2 hPa Calm     76 % 0.0 mm 0.0 W/m2 CLR
01:53 6.5 °C 2.6 °C 1022.2 hPa Calm     76 % 0.0 mm 0.0 W/m2 CLR
01:58 6.5 °C 2.6 °C 1022.2 hPa ENE 3.7 km/h 3.7 km/h 76 % 0.0 mm 0.0 W/m2 CLR
02:03 6.7 °C 2.6 °C 1021.9 hPa Calm   0.6 km/h 75 % 0.0 mm 0.0 W/m2 CLR
02:09 6.8 °C 2.7 °C 1021.9 hPa ENE 3.7 km/h 3.7 km/h 75 % 0.0 mm 0.0 W/m2 CLR
02:14 6.9 °C 2.8 °C 1021.9 hPa ENE 5.6 km/h 5.6 km/h 75 % 0.0 mm 0.0 W/m2 CLR
02:19 7.0 °C 2.7 °C 1021.6 hPa ENE 1.9 km/h 1.9 km/h 74 % 0.0 mm 0.0 W/m2 CLR
02:24 7.1 °C 2.7 °C 1021.6 hPa Calm     74 % 0.0 mm 0.0 W/m2 CLR
02:29 7.1 °C 2.7 °C 1021.2 hPa Calm     74 % 0.0 mm 0.0 W/m2 CLR
02:34 7.0 °C 2.7 °C 1021.2 hPa ENE 4.8 km/h 4.8 km/h 74 % 0.0 mm 0.0 W/m2 CLR
02:39 7.0 °C 2.7 °C 1021.2 hPa Calm     74 % 0.0 mm 0.0 W/m2 CLR
02:44 7.0 °C 2.7 °C 1020.9 hPa Calm     74 % 0.0 mm 0.0 W/m2 CLR
02:49 7.0 °C 2.7 °C 1020.9 hPa Calm     74 % 0.0 mm 0.0 W/m2 CLR
02:54 6.9 °C 2.6 °C 1021.2 hPa Calm     74 % 0.0 mm 0.0 W/m2 CLR
02:59 7.0 °C 2.7 °C 1021.2 hPa Calm     74 % 0.0 mm 0.0 W/m2 CLR
03:04 7.1 °C 2.6 °C 1021.2 hPa ENE 11.3 km/h 11.3 km/h 73 % 0.0 mm 0.0 W/m2 CLR
03:09 7.4 °C 2.7 °C 1021.2 hPa ENE 7.4 km/h 7.4 km/h 72 % 0.0 mm 0.0 W/m2 CLR
03:14 7.6 °C 2.7 °C 1021.2 hPa ENE 13.0 km/h 13.0 km/h 71 % 0.0 mm 0.0 W/m2 CLR
03:19 7.8 °C 2.7 °C 1021.2 hPa ENE 11.1 km/h 11.1 km/h 70 % 0.0 mm 0.0 W/m2 CLR
03:24 8.1 °C 2.8 °C 1020.9 hPa ENE 18.5 km/h 18.5 km/h 69 % 0.0 mm 0.0 W/m2 CLR
03:29 8.2 °C 2.9 °C 1020.9 hPa ENE 18.5 km/h 18.5 km/h 69 % 0.0 mm 0.0 W/m2 CLR
03:34 8.3 °C 2.9 °C 1020.9 hPa ENE 20.4 km/h 20.4 km/h 69 % 0.0 mm 0.0 W/m2 CLR
03:39 8.3 °C 2.8 °C 1020.9 hPa ENE 20.9 km/h 20.9 km/h 68 % 0.0 mm 0.0 W/m2 CLR
03:44 8.4 °C 2.6 °C 1020.5 hPa ENE 22.2 km/h 22.2 km/h 67 % 0.0 mm 0.0 W/m2 CLR
03:49 8.4 °C 2.6 °C 1020.5 hPa ENE 29.6 km/h 29.6 km/h 67 % 0.0 mm 0.0 W/m2 CLR
03:54 8.3 °C 2.6 °C 1020.5 hPa ENE 18.5 km/h 18.5 km/h 67 % 0.0 mm 0.0 W/m2 CLR
03:59 8.3 °C 2.5 °C 1020.2 hPa ENE 25.9 km/h 25.9 km/h 67 % 0.0 mm 0.0 W/m2 CLR
04:04 8.3 °C 2.6 °C 1020.2 hPa ENE 24.1 km/h 24.1 km/h 67 % 0.0 mm 0.0 W/m2 CLR
04:09 8.3 °C 2.6 °C 1020.2 hPa ENE 20.4 km/h 20.4 km/h 67 % 0.0 mm 0.0 W/m2 CLR
04:14 8.2 °C 2.4 °C 1020.2 hPa ENE 27.8 km/h 27.8 km/h 67 % 0.0 mm 0.0 W/m2 CLR
04:19 8.2 °C 2.6 °C 1020.2 hPa ENE 19.3 km/h 19.3 km/h 68 % 0.0 mm 0.0 W/m2 CLR
04:24 8.2 °C 2.9 °C 1019.9 hPa ENE 25.9 km/h 25.9 km/h 69 % 0.0 mm 0.0 W/m2 CLR
04:29 8.3 °C 3.0 °C 1019.9 hPa ENE 20.4 km/h 20.4 km/h 69 % 0.0 mm 0.0 W/m2 CLR
04:34 8.4 °C 3.0 °C 1019.9 hPa ENE 25.9 km/h 25.9 km/h 69 % 0.0 mm 0.0 W/m2 CLR
04:39 8.4 °C 3.2 °C 1019.9 hPa ENE 22.2 km/h 22.2 km/h 70 % 0.0 mm 0.0 W/m2 CLR
04:44 8.3 °C 3.2 °C 1019.5 hPa ENE 20.4 km/h 20.4 km/h 70 % 0.0 mm 0.0 W/m2 CLR
04:49 8.4 °C 3.2 °C 1019.5 hPa ENE 18.5 km/h 18.5 km/h 70 % 0.0 mm 0.0 W/m2 CLR
04:54 8.4 °C 3.0 °C 1019.5 hPa ENE 22.2 km/h 22.2 km/h 69 % 0.0 mm 0.0 W/m2 CLR
04:59 8.5 °C 3.1 °C 1019.2 hPa ENE 22.2 km/h 22.2 km/h 69 % 0.0 mm 0.0 W/m2 CLR
05:04 8.6 °C 3.2 °C 1019.2 hPa ENE 18.5 km/h 18.5 km/h 69 % 0.0 mm 0.0 W/m2 CLR
05:09 8.6 °C 3.2 °C 1019.2 hPa ENE 20.9 km/h 20.9 km/h 69 % 0.0 mm 0.0 W/m2 CLR
05:14 8.7 °C 3.3 °C 1018.8 hPa ENE 24.1 km/h 24.1 km/h 69 % 0.0 mm 0.0 W/m2 CLR
05:19 8.7 °C 3.3 °C 1018.8 hPa ENE 25.9 km/h 25.9 km/h 69 % 0.0 mm 0.0 W/m2 CLR
05:24 8.8 °C 3.4 °C 1019.2 hPa ENE 18.5 km/h 18.5 km/h 69 % 0.0 mm 0.0 W/m2 CLR
05:29 8.8 °C 3.6 °C 1019.2 hPa ENE 25.9 km/h 25.9 km/h 70 % 0.0 mm 0.0 W/m2 CLR
05:34 8.8 °C 3.6 °C 1019.2 hPa ENE 25.9 km/h 25.9 km/h 70 % 0.0 mm 0.0 W/m2 CLR
05:39 8.8 °C 3.7 °C 1018.8 hPa ENE 25.9 km/h 25.9 km/h 70 % 0.0 mm 0.0 W/m2 CLR
05:44 9.1 °C 3.7 °C 1018.8 hPa ENE 27.8 km/h 27.8 km/h 69 % 0.0 mm 0.0 W/m2 CLR
05:49 9.2 °C 3.6 °C 1018.8 hPa ENE 25.9 km/h 25.9 km/h 68 % 0.0 mm 0.0 W/m2 CLR
05:54 9.2 °C 3.6 °C 1018.5 hPa ENE 25.9 km/h 25.9 km/h 68 % 0.0 mm 0.0 W/m2 CLR
05:59 9.2 °C 3.4 °C 1018.5 hPa ENE 31.5 km/h 31.5 km/h 67 % 0.0 mm 0.0 W/m2 CLR
06:04 9.2 °C 3.4 °C 1018.5 hPa ENE 31.5 km/h 31.5 km/h 67 % 0.0 mm 0.0 W/m2 CLR
06:09 9.3 °C 3.2 °C 1018.2 hPa ENE 33.3 km/h 33.3 km/h 66 % 0.0 mm 0.0 W/m2 CLR
06:14 9.3 °C 3.3 °C 1018.2 hPa ENE 24.1 km/h 24.1 km/h 66 % 0.0 mm 0.0 W/m2 CLR
06:19 9.4 °C 3.3 °C 1018.2 hPa ENE 31.5 km/h 31.5 km/h 66 % 0.0 mm 0.0 W/m2 CLR
06:20 9.4 °C 3.3 °C 1018.2 hPa ENE 31.5 km/h 31.5 km/h 66 % 0.0 mm 0.0 W/m2 CLR
06:25 9.3 °C 3.3 °C 1018.2 hPa ENE 31.5 km/h 31.5 km/h 66 % 0.0 mm 0.0 W/m2 CLR
06:30 9.3 °C 3.2 °C 1018.5 hPa ENE 27.8 km/h 27.8 km/h 66 % 0.0 mm 0.0 W/m2 CLR
06:35 9.3 °C 3.2 °C 1018.5 hPa ENE 29.6 km/h 29.6 km/h 66 % 0.0 mm 0.0 W/m2 CLR
06:40 9.3 °C 3.4 °C 1018.2 hPa ENE 31.5 km/h 31.5 km/h 67 % 0.0 mm 0.0 W/m2 CLR
06:45 9.3 °C 3.5 °C 1018.2 hPa ENE 29.6 km/h 29.6 km/h 67 % 0.0 mm 0.0 W/m2 CLR
06:50 9.3 °C 3.7 °C 1018.2 hPa ENE 29.6 km/h 29.6 km/h 68 % 0.0 mm 0.0 W/m2 CLR
06:55 9.2 °C 3.8 °C 1018.2 hPa ENE 33.8 km/h 33.8 km/h 69 % 0.0 mm 0.0 W/m2 CLR
07:00 9.0 °C 3.6 °C 1017.8 hPa ENE 33.3 km/h 33.3 km/h 69 % 0.0 mm 0.0 W/m2 CLR
07:05 8.9 °C 3.8 °C 1017.8 hPa ENE 35.2 km/h 35.2 km/h 70 % 0.0 mm 0.0 W/m2 CLR
07:10 8.9 °C 3.8 °C 1017.8 hPa ENE 40.2 km/h 40.2 km/h 70 % 0.0 mm 0.0 W/m2 CLR
07:15 9.1 °C 3.7 °C 1017.8 hPa ENE 38.9 km/h 38.9 km/h 69 % 0.0 mm 0.0 W/m2 CLR
07:20 9.1 °C 3.7 °C 1017.8 hPa ENE 37.0 km/h 37.0 km/h 69 % 0.0 mm 0.0 W/m2 CLR
07:25 9.1 °C 3.7 °C 1017.8 hPa ENE 31.5 km/h 31.5 km/h 69 % 0.0 mm 0.0 W/m2 CLR
07:30 9.1 °C 3.7 °C 1017.8 hPa ENE 33.3 km/h 33.3 km/h 69 % 0.0 mm 0.0 W/m2 CLR
07:35 9.2 °C 3.8 °C 1017.8 hPa ENE 40.7 km/h 40.7 km/h 69 % 0.0 mm 0.0 W/m2 CLR
07:40 9.2 °C 3.8 °C 1017.8 hPa ENE 27.8 km/h 27.8 km/h 69 % 0.0 mm 0.0 W/m2 CLR
07:45 9.2 °C 3.8 °C 1017.8 hPa ENE 33.3 km/h 33.3 km/h 69 % 0.0 mm 0.0 W/m2 CLR
07:50 9.1 °C 3.7 °C 1017.8 hPa ENE 31.5 km/h 31.5 km/h 69 % 0.0 mm 0.0 W/m2 CLR
07:55 9.1 °C 3.7 °C 1017.8 hPa ENE 27.8 km/h 27.8 km/h 69 % 0.0 mm 0.0 W/m2 CLR
08:00 9.1 °C 3.7 °C 1017.5 hPa ENE 31.5 km/h 31.5 km/h 69 % 0.0 mm 0.0 W/m2 CLR
08:05 8.9 °C 3.8 °C 1017.5 hPa ENE 24.1 km/h 25.4 km/h 70 % 0.0 mm 0.0 W/m2 CLR
08:10 8.9 °C 3.7 °C 1017.5 hPa ENE 24.1 km/h 24.1 km/h 70 % 0.0 mm 0.0 W/m2 CLR
08:15 8.8 °C 3.7 °C 1017.5 hPa ENE 31.5 km/h 31.5 km/h 70 % 0.0 mm 0.0 W/m2 CLR
08:20 8.8 °C 3.7 °C 1017.5 hPa ENE 24.1 km/h 24.1 km/h 70 % 0.0 mm 0.0 W/m2 CLR
08:25 8.9 °C 3.7 °C 1017.5 hPa ENE 27.8 km/h 27.8 km/h 70 % 0.0 mm 0.0 W/m2 OVC
08:30 8.8 °C 3.6 °C 1017.5 hPa NE 19.3 km/h 19.3 km/h 70 % 0.0 mm 0.0 W/m2 OVC
08:35 8.9 °C 3.5 °C 1017.5 hPa ENE 27.8 km/h 27.8 km/h 69 % 0.0 mm 5.0 W/m2 BKN
08:40 9.0 °C 3.6 °C 1017.5 hPa ENE 31.5 km/h 31.5 km/h 69 % 0.0 mm 7.0 W/m2 BKN
08:45 8.9 °C 3.6 °C 1017.5 hPa ENE 29.6 km/h 29.6 km/h 69 % 0.0 mm 14.0 W/m2 BKN
08:50 8.9 °C 3.5 °C 1017.5 hPa ENE 25.9 km/h 25.9 km/h 69 % 0.0 mm 21.0 W/m2 BKN
08:55 8.8 °C 3.6 °C 1017.5 hPa ENE 29.6 km/h 29.6 km/h 70 % 0.0 mm 26.0 W/m2 BKN
09:00 8.8 °C 3.7 °C 1017.5 hPa ENE 25.9 km/h 25.9 km/h 70 % 0.0 mm 30.0 W/m2 BKN
09:05 8.8 °C 3.8 °C 1017.5 hPa ENE 29.6 km/h 29.6 km/h 71 % 0.0 mm 32.0 W/m2 BKN
09:10 8.8 °C 3.8 °C 1017.5 hPa ENE 35.2 km/h 35.2 km/h 71 % 0.0 mm 47.0 W/m2 BKN
09:15 8.9 °C 4.1 °C 1017.2 hPa ENE 31.5 km/h 31.5 km/h 72 % 0.0 mm 74.0 W/m2 BKN
09:20 9.0 °C 4.2 °C 1017.2 hPa ENE 37.0 km/h 37.0 km/h 72 % 0.0 mm 90.0 W/m2 BKN
09:25 9.1 °C 4.3 °C 1017.2 hPa ENE 27.8 km/h 27.8 km/h 72 % 0.0 mm 139.0 W/m2 BKN
09:30 9.3 °C 4.5 °C 1017.2 hPa ENE 37.0 km/h 37.0 km/h 72 % 0.0 mm 171.0 W/m2 SCT
09:35 9.3 °C 4.6 °C 1017.2 hPa ENE 22.2 km/h 22.2 km/h 72 % 0.0 mm 160.0 W/m2 SCT
09:40 9.4 °C 4.6 °C 1017.2 hPa ENE 31.5 km/h 31.5 km/h 72 % 0.0 mm 193.0 W/m2 SCT
09:45 9.5 °C 4.9 °C 1017.2 hPa ENE 25.7 km/h 25.7 km/h 73 % 0.0 mm 169.0 W/m2 SCT
09:50 9.4 °C 4.8 °C 1017.5 hPa ENE 37.0 km/h 37.0 km/h 73 % 0.0 mm 151.0 W/m2 SCT
09:55 9.4 °C 4.8 °C 1017.2 hPa ENE 40.7 km/h 40.7 km/h 73 % 0.0 mm 84.0 W/m2 BKN
10:00 9.3 °C 4.7 °C 1017.2 hPa NE 27.8 km/h 27.8 km/h 73 % 0.0 mm 53.0 W/m2 BKN
10:05 9.2 °C 4.6 °C 1017.2 hPa NNW 38.9 km/h 38.9 km/h 73 % 0.0 mm 58.0 W/m2 BKN
10:10 9.1 °C 4.7 °C 1017.2 hPa NW 25.9 km/h 25.9 km/h 74 % 0.0 mm 70.0 W/m2 BKN
10:15 9.1 °C 4.7 °C 1016.8 hPa NW 33.8 km/h 33.8 km/h 74 % 0.0 mm 72.0 W/m2 BKN
10:20 9.2 °C 4.8 °C 1016.8 hPa NW 37.0 km/h 37.0 km/h 74 % 0.0 mm 81.0 W/m2 BKN
10:25 9.2 °C 4.8 °C 1016.8 hPa NW 44.4 km/h 44.4 km/h 74 % 0.0 mm 81.0 W/m2 BKN
10:30 9.1 °C 5.1 °C 1017.2 hPa NW 35.2 km/h 35.2 km/h 76 % 0.0 mm 98.0 W/m2 BKN
10:35 8.9 °C 5.1 °C 1017.2 hPa NW 42.6 km/h 42.6 km/h 77 % 0.0 mm 104.0 W/m2 BKN
10:40 8.9 °C 5.1 °C 1017.2 hPa NW 33.8 km/h 33.8 km/h 77 % 0.0 mm 90.0 W/m2 BKN
10:45 8.9 °C 5.3 °C 1017.2 hPa NW 25.9 km/h 25.9 km/h 78 % 0.0 mm 100.0 W/m2 BKN
10:50 9.0 °C 5.2 °C 1017.2 hPa NW 31.5 km/h 31.5 km/h 77 % 0.0 mm 84.0 W/m2 BKN
10:55 9.0 °C 5.2 °C 1017.5 hPa NW 24.1 km/h 24.1 km/h 77 % 0.0 mm 105.0 W/m2 BKN
11:00 9.1 °C 5.2 °C 1017.5 hPa NW 14.8 km/h 14.8 km/h 77 % 0.0 mm 72.0 W/m2 BKN
11:05 9.1 °C 5.1 °C 1017.5 hPa NW 25.9 km/h 25.9 km/h 76 % 0.0 mm 77.0 W/m2 BKN
11:10 9.2 °C 5.2 °C 1017.2 hPa NW 31.5 km/h 31.5 km/h 76 % 0.0 mm 113.0 W/m2 BKN
11:15 9.3 °C 5.3 °C 1017.2 hPa NW 27.8 km/h 27.8 km/h 76 % 0.0 mm 113.0 W/m2 BKN
11:20 9.4 °C 5.2 °C 1016.8 hPa NW 27.8 km/h 27.8 km/h 75 % 0.0 mm 132.0 W/m2 BKN
11:25 9.4 °C 5.2 °C 1016.5 hPa NW 35.2 km/h 35.2 km/h 75 % 0.0 mm 163.0 W/m2 BKN
11:30 9.6 °C 5.2 °C 1016.5 hPa NW 38.9 km/h 38.9 km/h 74 % 0.0 mm 195.0 W/m2 BKN
11:35 9.8 °C 5.4 °C 1016.1 hPa NW 29.6 km/h 29.6 km/h 74 % 0.0 mm 220.0 W/m2 BKN
11:40 9.8 °C 5.2 °C 1016.1 hPa NW 33.3 km/h 33.3 km/h 73 % 0.0 mm 218.0 W/m2 BKN
11:45 9.9 °C 5.3 °C 1016.1 hPa NW 27.8 km/h 27.8 km/h 73 % 0.0 mm 227.0 W/m2 BKN
11:50 10.1 °C 5.4 °C 1015.8 hPa NW 25.9 km/h 25.9 km/h 73 % 0.0 mm 169.0 W/m2 BKN
11:55 10.1 °C 5.5 °C 1015.8 hPa NW 37.0 km/h 37.0 km/h 73 % 0.0 mm 207.0 W/m2 BKN
12:00 10.2 °C 5.3 °C 1015.5 hPa NW 42.6 km/h 42.6 km/h 72 % 0.0 mm 202.0 W/m2 BKN
12:05 10.3 °C 5.4 °C 1015.5 hPa NW 35.2 km/h 35.2 km/h 72 % 0.0 mm 200.0 W/m2 BKN
12:10 10.3 °C 5.5 °C 1015.1 hPa NW 48.1 km/h 48.1 km/h 72 % 0.0 mm 176.0 W/m2 BKN
12:15 10.4 °C 5.3 °C 1015.1 hPa NW 37.0 km/h 37.0 km/h 71 % 0.0 mm 169.0 W/m2 BKN
12:20 10.4 °C 5.4 °C 1014.8 hPa NW 40.2 km/h 40.2 km/h 71 % 0.0 mm 195.0 W/m2 BKN
12:25 10.6 °C 5.6 °C 1014.8 hPa NW 44.4 km/h 44.4 km/h 71 % 0.0 mm 202.0 W/m2 BKN
12:30 10.8 °C 5.5 °C 1015.1 hPa NW 46.3 km/h 46.3 km/h 70 % 0.0 mm 183.0 W/m2 BKN
12:35 10.8 °C 5.6 °C 1014.8 hPa NW 42.6 km/h 42.6 km/h 70 % 0.0 mm 155.0 W/m2 BKN
12:40 10.9 °C 5.6 °C 1014.4 hPa NW 53.7 km/h 53.7 km/h 70 % 0.0 mm 148.0 W/m2 BKN
12:45 10.9 °C 5.6 °C 1014.4 hPa NW 51.8 km/h 51.8 km/h 70 % 0.0 mm 207.0 W/m2 BKN
12:50 11.1 °C 5.8 °C 1014.1 hPa NW 46.3 km/h 46.3 km/h 70 % 0.0 mm 234.0 W/m2 BKN
12:56 11.2 °C 5.9 °C 1014.1 hPa NW 51.5 km/h 51.5 km/h 70 % 0.0 mm 223.0 W/m2 BKN
13:01 11.2 °C 5.9 °C 1014.4 hPa NW 56.3 km/h 56.3 km/h 70 % 0.0 mm 241.0 W/m2 BKN
13:06 11.3 °C 6.1 °C 1014.4 hPa NW 42.6 km/h 42.6 km/h 70 % 0.0 mm 373.0 W/m2 SCT
13:11 11.4 °C 5.9 °C 1014.1 hPa NW 51.8 km/h 51.8 km/h 69 % 0.0 mm 218.0 W/m2 SCT
13:16 11.4 °C 5.9 °C 1014.4 hPa NNW 62.9 km/h 62.9 km/h 69 % 0.0 mm 376.0 W/m2 SCT
13:21 11.3 °C 5.8 °C 1014.1 hPa NNW 61.1 km/h 61.1 km/h 69 % 0.0 mm 190.0 W/m2 SCT
13:26 11.3 °C 6.0 °C 1014.1 hPa NW 51.8 km/h 51.8 km/h 70 % 0.0 mm 200.0 W/m2 BKN
13:31 11.2 °C 5.9 °C 1014.1 hPa NW 51.8 km/h 51.8 km/h 70 % 0.0 mm 186.0 W/m2 BKN
13:36 11.5 °C 6.2 °C 1013.8 hPa NNW 48.1 km/h 48.1 km/h 70 % 0.0 mm 371.0 W/m2 SCT
13:41 11.8 °C 6.3 °C 1013.8 hPa NW 46.3 km/h 46.3 km/h 69 % 0.0 mm 461.0 W/m2 FEW
13:46 12.0 °C 6.5 °C 1013.8 hPa NW 51.8 km/h 51.8 km/h 69 % 0.0 mm 441.0 W/m2 CLR
13:51 12.0 °C 6.5 °C 1013.8 hPa NW 55.5 km/h 55.5 km/h 69 % 0.0 mm 534.0 W/m2 CLR
13:56 11.9 °C 6.2 °C 1013.8 hPa NW 51.8 km/h 51.8 km/h 68 % 0.0 mm 221.0 W/m2 CLR
14:01 11.8 °C 6.3 °C 1014.1 hPa NNW 56.3 km/h 56.3 km/h 69 % 0.0 mm 274.0 W/m2 SCT
14:06 11.6 °C 6.1 °C 1014.1 hPa NNW 61.1 km/h 61.1 km/h 69 % 0.0 mm 279.0 W/m2 SCT
14:11 11.6 °C 6.1 °C 1013.8 hPa NNW 53.7 km/h 53.7 km/h 69 % 0.0 mm 257.0 W/m2 SCT
14:16 11.6 °C 6.1 °C 1013.8 hPa NNW 51.8 km/h 51.8 km/h 69 % 0.0 mm 239.0 W/m2 SCT
14:21 11.7 °C 5.9 °C 1013.8 hPa NNW 59.2 km/h 59.2 km/h 68 % 0.0 mm 308.0 W/m2 SCT
14:26 11.8 °C 6.1 °C 1013.4 hPa NNW 55.5 km/h 55.5 km/h 68 % 0.0 mm 322.0 W/m2 SCT
14:31 11.9 °C 6.2 °C 1013.4 hPa NNW 59.2 km/h 59.2 km/h 68 % 0.0 mm 362.0 W/m2 FEW
14:36 12.0 °C 6.3 °C 1013.4 hPa NNW 55.5 km/h 55.5 km/h 68 % 0.0 mm 330.0 W/m2 CLR
14:41 12.0 °C 6.3 °C 1013.4 hPa NNW 50.0 km/h 50.0 km/h 68 % 0.0 mm 323.0 W/m2 CLR
14:46 11.9 °C 6.2 °C 1013.4 hPa NNW 55.5 km/h 55.5 km/h 68 % 0.0 mm 325.0 W/m2 FEW
14:51 12.0 °C 6.3 °C 1013.4 hPa NW 48.1 km/h 48.1 km/h 68 % 0.0 mm 309.0 W/m2 FEW
14:56 12.1 °C 6.3 °C 1013.1 hPa NW 50.0 km/h 50.0 km/h 68 % 0.0 mm 357.0 W/m2 CLR
15:01 12.1 °C 6.2 °C 1013.1 hPa NW 59.2 km/h 59.2 km/h 67 % 0.0 mm 322.0 W/m2 CLR
15:06 12.2 °C 6.3 °C 1013.1 hPa NW 48.1 km/h 48.1 km/h 67 % 0.0 mm 272.0 W/m2 CLR
15:11 12.1 °C 6.2 °C 1013.1 hPa NNW 57.4 km/h 57.4 km/h 67 % 0.0 mm 185.0 W/m2 CLR
15:16 12.1 °C 6.3 °C 1013.1 hPa NNW 59.5 km/h 59.5 km/h 68 % 0.0 mm 251.0 W/m2 FEW
15:21 12.1 °C 6.1 °C 1013.4 hPa NW 46.3 km/h 46.3 km/h 67 % 0.0 mm 225.0 W/m2 FEW
15:26 12.1 °C 5.9 °C 1013.1 hPa NW 42.6 km/h 42.6 km/h 66 % 0.0 mm 172.0 W/m2 FEW
15:31 12.2 °C 6.1 °C 1013.1 hPa NW 50.0 km/h 50.0 km/h 66 % 0.0 mm 207.0 W/m2 FEW
15:36 12.2 °C 5.8 °C 1013.1 hPa NW 48.1 km/h 48.1 km/h 65 % 0.0 mm 223.0 W/m2 FEW
15:41 12.2 °C 5.8 °C 1013.1 hPa NW 40.7 km/h 40.7 km/h 65 % 0.0 mm 197.0 W/m2 FEW
15:46 12.2 °C 5.8 °C 1013.1 hPa NW 57.4 km/h 57.4 km/h 65 % 0.0 mm 134.0 W/m2 FEW
15:51 12.1 °C 5.7 °C 1013.1 hPa NW 48.1 km/h 48.1 km/h 65 % 0.0 mm 186.0 W/m2 FEW
15:56 12.1 °C 5.7 °C 1013.4 hPa NW 33.3 km/h 33.3 km/h 65 % 0.0 mm 190.0 W/m2 FEW
16:01 12.0 °C 5.6 °C 1013.4 hPa NW 33.3 km/h 33.3 km/h 65 % 0.0 mm 153.0 W/m2 CLR
16:06 12.0 °C 5.6 °C 1013.4 hPa NW 38.9 km/h 38.9 km/h 65 % 0.0 mm 176.0 W/m2 CLR
16:11 12.1 °C 5.7 °C 1013.4 hPa NW 31.5 km/h 31.5 km/h 65 % 0.0 mm 167.0 W/m2 CLR
16:16 12.0 °C 5.6 °C 1013.4 hPa NW 48.1 km/h 48.1 km/h 65 % 0.0 mm 135.0 W/m2 CLR
16:21 11.9 °C 5.6 °C 1013.1 hPa NW 24.1 km/h 24.1 km/h 65 % 0.0 mm 104.0 W/m2 CLR
16:26 11.8 °C 5.4 °C 1013.4 hPa NW 45.1 km/h 45.1 km/h 65 % 0.0 mm 102.0 W/m2 CLR
16:31 11.8 °C 5.4 °C 1013.4 hPa NW 44.4 km/h 44.4 km/h 65 % 0.0 mm 107.0 W/m2 CLR
16:36 11.7 °C 5.3 °C 1013.1 hPa NW 33.3 km/h 33.3 km/h 65 % 0.0 mm 83.0 W/m2 CLR
16:41 11.6 °C 5.2 °C 1013.4 hPa NW 40.2 km/h 40.2 km/h 65 % 0.0 mm 86.0 W/m2 CLR
16:46 11.6 °C 5.2 °C 1013.4 hPa NW 35.4 km/h 35.4 km/h 65 % 0.0 mm 77.0 W/m2 CLR
16:51 11.5 °C 5.4 °C 1013.4 hPa NW 44.4 km/h 44.4 km/h 66 % 0.0 mm 70.0 W/m2 CLR
16:56 11.4 °C 5.3 °C 1013.4 hPa NW 33.3 km/h 33.3 km/h 66 % 0.0 mm 60.0 W/m2 CLR
17:01 11.3 °C 5.2 °C 1013.4 hPa NW 43.4 km/h 43.4 km/h 66 % 0.0 mm 42.0 W/m2 CLR
17:06 11.2 °C 5.1 °C 1013.4 hPa NW 40.7 km/h 40.7 km/h 66 % 0.0 mm 28.0 W/m2 OVC
17:11 11.1 °C 4.9 °C 1013.4 hPa NW 55.5 km/h 55.5 km/h 66 % 0.0 mm 21.0 W/m2 OVC
17:16 10.9 °C 5.1 °C 1013.8 hPa NW 42.6 km/h 42.6 km/h 67 % 0.0 mm 19.0 W/m2 OVC
17:21 10.8 °C 4.9 °C 1013.8 hPa NW 38.9 km/h 38.9 km/h 67 % 0.0 mm 21.0 W/m2 OVC
17:26 10.8 °C 4.9 °C 1013.8 hPa NW 49.9 km/h 49.9 km/h 67 % 0.0 mm 18.0 W/m2 OVC
17:31 10.7 °C 5.1 °C 1013.8 hPa NW 42.6 km/h 42.6 km/h 68 % 0.0 mm 12.0 W/m2 OVC
17:36 10.6 °C 4.9 °C 1013.8 hPa NW 32.2 km/h 32.2 km/h 68 % 0.0 mm 9.0 W/m2 OVC
17:41 10.5 °C 4.8 °C 1013.8 hPa NW 42.6 km/h 42.6 km/h 68 % 0.0 mm 7.0 W/m2 OVC
17:46 10.5 °C 4.8 °C 1013.8 hPa NW 59.2 km/h 59.2 km/h 68 % 0.0 mm 0.0 W/m2
17:51 10.4 °C 4.8 °C 1014.1 hPa NW 46.3 km/h 46.3 km/h 68 % 0.0 mm 0.0 W/m2 OVC
17:56 10.4 °C 4.8 °C 1014.1 hPa NW 53.7 km/h 53.7 km/h 68 % 0.0 mm 0.0 W/m2
18:01 10.3 °C 4.9 °C 1014.4 hPa NW 42.6 km/h 42.6 km/h 69 % 0.0 mm 0.0 W/m2 CLR
18:06 10.2 °C 4.8 °C 1014.4 hPa NW 37.0 km/h 37.0 km/h 69 % 0.0 mm 0.0 W/m2 CLR
18:12 10.1 °C 4.9 °C 1014.8 hPa NW 42.6 km/h 42.6 km/h 70 % 0.0 mm 0.0 W/m2 CLR
18:17 10.1 °C 4.9 °C 1014.8 hPa NW 55.5 km/h 55.5 km/h 70 % 0.0 mm 0.0 W/m2 CLR
18:22 10.0 °C 5.0 °C 1014.8 hPa NW 37.0 km/h 37.0 km/h 71 % 0.0 mm 0.0 W/m2 CLR
18:27 9.9 °C 4.9 °C 1015.1 hPa NNW 38.6 km/h 38.6 km/h 71 % 0.0 mm 0.0 W/m2 CLR
18:32 9.9 °C 4.9 °C 1014.8 hPa NW 55.5 km/h 55.5 km/h 71 % 0.0 mm 0.0 W/m2 CLR
18:37 9.9 °C 4.9 °C 1014.8 hPa NW 46.3 km/h 46.3 km/h 71 % 0.0 mm 0.0 W/m2 CLR
18:42 9.8 °C 4.8 °C 1014.4 hPa NW 51.5 km/h 51.5 km/h 71 % 0.0 mm 0.0 W/m2 CLR
18:47 9.8 °C 4.9 °C 1014.4 hPa NW 46.3 km/h 46.3 km/h 72 % 0.0 mm 0.0 W/m2 CLR
18:52 9.8 °C 4.9 °C 1014.4 hPa NW 49.9 km/h 49.9 km/h 72 % 0.0 mm 0.0 W/m2 CLR
18:57 9.8 °C 4.8 °C 1014.4 hPa NW 53.7 km/h 53.7 km/h 71 % 0.0 mm 0.0 W/m2
19:02 9.7 °C 4.7 °C 1014.8 hPa NW 53.1 km/h 53.1 km/h 71 % 0.0 mm 0.0 W/m2 CLR
19:07 9.7 °C 4.7 °C 1014.4 hPa NW 44.4 km/h 44.4 km/h 71 % 0.0 mm 0.0 W/m2 CLR
19:12 9.6 °C 4.8 °C 1014.8 hPa NW 40.7 km/h 40.7 km/h 72 % 0.0 mm 0.0 W/m2 CLR
19:17 9.6 °C 4.9 °C 1014.8 hPa NW 38.9 km/h 38.9 km/h 73 % 0.0 mm 0.0 W/m2 CLR
19:22 9.5 °C 4.9 °C 1014.8 hPa NW 55.5 km/h 55.5 km/h 73 % 0.0 mm 0.0 W/m2 CLR
19:27 9.5 °C 4.9 °C 1015.1 hPa NW 38.9 km/h 38.9 km/h 73 % 0.0 mm 0.0 W/m2 CLR
19:32 9.4 °C 4.8 °C 1015.1 hPa NW 37.0 km/h 37.0 km/h 73 % 0.0 mm 0.0 W/m2 CLR
19:37 9.3 °C 4.7 °C 1015.1 hPa NW 42.6 km/h 42.6 km/h 73 % 0.0 mm 0.0 W/m2 CLR
19:42 9.3 °C 4.7 °C 1015.1 hPa NW 53.7 km/h 53.7 km/h 73 % 0.0 mm 0.0 W/m2 CLR
19:47 9.2 °C 4.8 °C 1015.1 hPa NW 37.0 km/h 37.0 km/h 74 % 0.0 mm 0.0 W/m2 CLR
19:52 9.2 °C 4.8 °C 1015.1 hPa NW 38.9 km/h 38.9 km/h 74 % 0.0 mm 0.0 W/m2 CLR
19:57 9.1 °C 4.7 °C 1015.1 hPa NW 46.3 km/h 46.3 km/h 74 % 0.0 mm 0.0 W/m2 CLR
20:02 9.1 °C 4.7 °C 1015.5 hPa NW 41.8 km/h 41.8 km/h 74 % 0.0 mm 0.0 W/m2 CLR
20:07 9.1 °C 4.8 °C 1015.5 hPa NW 46.3 km/h 46.3 km/h 75 % 0.0 mm 0.0 W/m2 CLR
20:12 8.9 °C 4.7 °C 1015.5 hPa NW 42.6 km/h 42.6 km/h 75 % 0.0 mm 0.0 W/m2 CLR
20:17 8.8 °C 4.7 °C 1015.5 hPa NW 33.3 km/h 33.3 km/h 75 % 0.0 mm 0.0 W/m2 CLR
20:22 8.7 °C 4.7 °C 1015.5 hPa NW 35.2 km/h 35.2 km/h 76 % 0.0 mm 0.0 W/m2 CLR
20:27 8.7 °C 4.7 °C 1015.1 hPa NW 33.3 km/h 33.3 km/h 76 % 0.0 mm 0.0 W/m2 CLR
20:32 8.7 °C 4.7 °C 1015.1 hPa NW 30.6 km/h 30.6 km/h 76 % 0.0 mm 0.0 W/m2 CLR
20:37 8.6 °C 4.6 °C 1015.1 hPa NW 35.2 km/h 35.2 km/h 76 % 0.0 mm 0.0 W/m2 CLR
20:42 8.5 °C 4.7 °C 1015.1 hPa NW 37.0 km/h 37.0 km/h 77 % 0.0 mm 0.0 W/m2 CLR
20:47 8.5 °C 4.7 °C 1015.1 hPa NW 42.6 km/h 42.6 km/h 77 % 0.0 mm 0.0 W/m2 CLR
20:52 8.4 °C 4.8 °C 1015.1 hPa NW 33.3 km/h 33.3 km/h 78 % 0.0 mm 0.0 W/m2 CLR
20:57 8.4 °C 4.8 °C 1015.1 hPa NW 27.8 km/h 27.8 km/h 78 % 0.0 mm 0.0 W/m2 CLR
21:02 8.3 °C 4.7 °C 1015.1 hPa NW 31.5 km/h 32.2 km/h 78 % 0.0 mm 0.0 W/m2 CLR
21:07 8.3 °C 4.9 °C 1015.5 hPa NW 33.8 km/h 33.8 km/h 79 % 0.0 mm 0.0 W/m2 CLR
21:12 8.3 °C 4.8 °C 1015.5 hPa NW 40.7 km/h 40.7 km/h 79 % 0.0 mm 0.0 W/m2 CLR
21:17 8.3 °C 4.8 °C 1015.8 hPa NW 31.5 km/h 31.5 km/h 79 % 0.0 mm 0.0 W/m2 CLR
21:22 8.3 °C 4.8 °C 1015.8 hPa NW 44.4 km/h 44.4 km/h 79 % 0.0 mm 0.0 W/m2 CLR
21:27 8.3 °C 4.8 °C 1015.8 hPa NW 42.6 km/h 42.6 km/h 79 % 0.0 mm 0.0 W/m2 CLR
21:32 8.3 °C 4.8 °C 1015.8 hPa NW 38.9 km/h 38.9 km/h 79 % 0.0 mm 0.0 W/m2 CLR
21:37 8.3 °C 4.9 °C 1015.5 hPa NW 40.7 km/h 40.7 km/h 79 % 0.0 mm 0.0 W/m2 CLR
21:42 8.3 °C 4.9 °C 1015.5 hPa NW 42.6 km/h 42.6 km/h 79 % 0.0 mm 0.0 W/m2 CLR
21:47 8.2 °C 4.8 °C 1015.5 hPa NW 29.6 km/h 29.6 km/h 79 % 0.0 mm 0.0 W/m2 CLR
21:52 8.2 °C 4.9 °C 1015.1 hPa NW 37.0 km/h 37.0 km/h 80 % 0.0 mm 0.0 W/m2 CLR
21:57 8.1 °C 4.8 °C 1015.5 hPa NW 42.6 km/h 42.6 km/h 80 % 0.0 mm 0.0 W/m2 CLR
22:02 8.1 °C 5.0 °C 1015.5 hPa NW 33.3 km/h 33.3 km/h 81 % 0.0 mm 0.0 W/m2 CLR
22:07 8.1 °C 5.0 °C 1015.5 hPa NW 40.7 km/h 40.7 km/h 81 % 0.0 mm 0.0 W/m2 CLR
22:12 8.0 °C 4.9 °C 1015.5 hPa NW 42.6 km/h 42.6 km/h 81 % 0.0 mm 0.0 W/m2 CLR
22:17 8.0 °C 4.9 °C 1015.5 hPa NW 38.9 km/h 38.9 km/h 81 % 0.0 mm 0.0 W/m2 CLR
22:22 8.0 °C 4.8 °C 1015.5 hPa NW 27.8 km/h 27.8 km/h 80 % 0.0 mm 0.0 W/m2 CLR
22:27 8.0 °C 4.9 °C 1015.5 hPa NW 40.7 km/h 40.7 km/h 81 % 0.0 mm 0.0 W/m2 CLR
22:32 8.0 °C 4.8 °C 1015.5 hPa NW 33.3 km/h 33.3 km/h 80 % 0.0 mm 0.0 W/m2 CLR
22:37 8.0 °C 4.9 °C 1015.8 hPa NW 40.7 km/h 40.7 km/h 81 % 0.0 mm 0.0 W/m2 CLR
22:42 7.9 °C 4.9 °C 1015.8 hPa NW 37.0 km/h 37.0 km/h 81 % 0.0 mm 0.0 W/m2 CLR
22:47 7.9 °C 4.9 °C 1015.5 hPa NW 42.6 km/h 42.6 km/h 81 % 0.0 mm 0.0 W/m2 CLR
22:52 8.0 °C 4.8 °C 1015.5 hPa NW 35.4 km/h 35.4 km/h 80 % 0.0 mm 0.0 W/m2 CLR
22:57 7.9 °C 4.8 °C 1015.8 hPa NW 25.7 km/h 25.7 km/h 81 % 0.0 mm 0.0 W/m2 CLR
23:02 7.9 °C 4.8 °C 1015.8 hPa NW 35.2 km/h 35.2 km/h 81 % 0.0 mm 0.0 W/m2 CLR
23:07 7.9 °C 4.8 °C 1015.8 hPa NW 37.0 km/h 37.0 km/h 81 % 0.0 mm 0.0 W/m2 CLR
23:12 7.8 °C 4.8 °C 1015.8 hPa NW 31.5 km/h 31.5 km/h 81 % 0.0 mm 0.0 W/m2 CLR
23:17 7.8 °C 4.8 °C 1015.8 hPa NW 31.5 km/h 31.5 km/h 81 % 0.0 mm 0.0 W/m2 CLR
23:22 7.9 °C 4.8 °C 1015.8 hPa NW 35.2 km/h 35.2 km/h 81 % 0.0 mm 0.0 W/m2 CLR
23:27 7.8 °C 4.7 °C 1015.8 hPa NW 35.2 km/h 35.2 km/h 81 % 0.0 mm 0.0 W/m2 CLR
23:32 7.8 °C 4.8 °C 1015.8 hPa NW 38.9 km/h 38.9 km/h 81 % 0.0 mm 0.0 W/m2 CLR
23:37 7.8 °C 4.8 °C 1015.8 hPa NW 37.0 km/h 37.0 km/h 81 % 0.0 mm 0.0 W/m2 CLR
23:42 7.8 °C 4.8 °C 1015.8 hPa NW 31.5 km/h 31.5 km/h 81 % 0.0 mm 0.0 W/m2 CLR
23:47 7.7 °C 4.7 °C 1016.1 hPa NW 31.5 km/h 31.5 km/h 81 % 0.0 mm 0.0 W/m2 CLR
23:52 7.8 °C 4.7 °C 1016.1 hPa NW 35.2 km/h 35.2 km/h 81 % 0.0 mm 0.0 W/m2 CLR
23:57 7.8 °C 4.7 °C 1016.1 hPa NW 31.5 km/h 31.5 km/h 81 % 0.0 mm 0.0 W/m2 CLR
Lo Temps de Massalio
Compliments of Weather Underground - 1.25 mb